Gulfport, Florida
Current Conditions -  °F | °C
As of 2:53 PM on Monday 26 Jan 2015 (Local Time) from KSPG Reporting Station
Scattered Clouds Scattered Clouds  
Wind Chill: 63°   Ceiling: Unl
Heat Index: 63°   Visibility: 10mi
Dew Point: 49°   Wind: 16mph
Humidity: 60%   Direction: 340°NNW
Pressure: 29.89"   Gusts: 25mph
Location:  27.75°N, 82.7°W
Report Text: KSPG 261953Z 34014G22KT 10SM SCT033 17/09 A2989 RMK AO2 SLP121 T01720094
Loading
Personal Weather Stations






























Interactive Weather Map New forecast layout! Learn more

10-Day Weather Forecast

Advertisements
Track Severe Weather on mobile